Nong Khai, Thailand
Current Conditions -  °F | °C
As of 2:30 PM on Friday 31 Oct 2014 (Local Time) from VLVT Reporting Station
Few Clouds Few Clouds  
Wind Chill: 91°   Ceiling: Unl
Heat Index: 98°   Visibility: 6mi
Dew Point: 72°   Wind: 2mph
Humidity: 52%   Direction: 160°SSE
Pressure: 29.74"   Gusts: NA
Location:  17.88°N, 102.74°E
Report Text: VLVT 310730Z 16002KT 9999 FEW020 33/22 Q1007 NOSIG
Loading
Personal Weather Stations






























Interactive Weather Map
Tropical Storm Tracking
New forecast layout! Learn more

10-Day Weather Forecast

Advertisements
Track Severe Weather on mobile